Latest Weather Observations for Keith West

IDS60801

Issued at 4:41 pm CST Tuesday 20 April 2021 (issued every 10 minutes, with the page automatically refreshed every 10 minutes)

About weather observations | Map of weather stations | Latest weather observations for SA | Other Formats
Station Details ID: 025557 Name: MUNKORA Lat: -36.11 Lon: 140.33 Height: 27.0 m
Data from the previous 72 hours. | See also: Recent months at Keith West
Date/Time
CST
Temp
°C
App
Temp
°C
Dew
Point
°C
Rel
Hum
%
Delta-T
°C
Wind Press
QNH
hPa
Press
MSL
hPa
Rain since
9am
mm
Dir  Spd
km/h
Gust
km/h
Spd
kts
Gust
kts
20/04:30pm 14.0 7.7 1.6 43 5.4 SSW 24 33 13 18 1016.4 1016.4 0.0
20/04:00pm 14.8 8.2 2.0 42 5.6 SSW 26 37 14 20 1016.1 1016.1 0.0
20/03:30pm 14.9 8.5 3.4 46 5.2 S 26 37 14 20 1015.6 1015.6 0.0
20/03:00pm 14.6 8.8 4.3 50 4.8 SSW 24 32 13 17 1015.4 1015.4 0.0
20/02:30pm 15.3 9.2 5.0 50 4.9 SSW 26 35 14 19 1015.2 1015.2 0.0
20/02:00pm 15.0 9.7 5.2 52 4.6 SSW 22 32 12 17 1015.0 1015.0 0.0
20/01:30pm 15.0 8.7 7.3 60 3.8 SSW 30 43 16 23 1014.7 1014.7 0.0
20/01:28pm 15.0 8.7 7.3 60 3.8 SSW 30 43 16 23 1014.7 1014.7 0.0
20/01:00pm 14.5 10.8 9.5 72 2.6 SSW 19 24 10 13 1014.8 1014.8 0.0
20/12:30pm 12.3 6.8 7.6 73 2.3 SSW 26 39 14 21 1015.0 1015.0 0.0
20/12:00pm 14.5 11.1 9.3 71 2.7 SSE 17 24 9 13 1014.8 1014.8 0.0
20/11:30am 13.3 9.6 9.5 78 1.9 S 19 26 10 14 1015.1 1015.1 0.0
20/11:00am 12.6 8.6 8.9 78 1.9 S 20 28 11 15 1014.8 1014.8 0.0
20/10:30am 12.0 8.6 10.6 91 0.7 S 19 26 10 14 1014.4 1014.4 0.0
20/10:00am 11.5 6.9 11.2 98 0.2 SSW 26 44 14 24 1014.1 1014.1 0.0
20/09:30am 11.5 10.2 11.3 99 0.1 WSW 9 13 5 7 1013.5 1013.5 0.0
20/09:00am 11.4 9.6 10.8 96 0.3 WSW 11 15 6 8 1013.5 1013.5 0.0
20/08:30am 12.0 8.2 9.0 82 1.5 W 19 44 10 24 1013.1 1013.1 0.0
20/08:26am 14.2 10.8 9.0 71 2.6 NW 17 44 9 24 1013.3 1013.3 0.0
20/08:00am 14.2 10.6 8.2 67 3.0 NNW 17 22 9 12 1011.8 1011.8 0.0
20/07:30am 12.4 8.6 7.7 73 2.3 N 17 22 9 12 1011.7 1011.7 0.0
20/07:00am 11.4 8.1 8.1 80 1.6 N 15 19 8 10 1011.8 1011.8 0.0
20/06:30am 9.6 6.0 6.9 83 1.3 NNW 15 15 8 8 1012.0 1012.0 0.0
20/06:00am 8.4 4.6 6.0 85 1.1 N 15 15 8 8 1011.9 1011.9 0.0
20/05:30am 8.7 5.3 5.8 82 1.3 NNW 13 15 7 8 1012.0 1012.0 0.0
20/05:00am 9.0 5.6 5.9 81 1.4 NNW 13 15 7 8 1012.0 1012.0 0.0
20/04:30am 9.9 6.1 5.9 76 1.8 NNW 15 17 8 9 1011.9 1011.9 0.0
20/04:00am 9.9 6.0 5.5 74 2.0 NNW 15 17 8 9 1012.0 1012.0 0.0
20/03:30am 10.1 6.2 5.3 72 2.2 NNW 15 17 8 9 1011.9 1011.9 0.0
20/03:00am 10.5 6.3 5.5 71 2.3 N 17 20 9 11 1012.2 1012.2 0.0
20/02:30am 10.5 6.7 5.7 72 2.2 NNW 15 17 8 9 1012.6 1012.6 0.0
20/02:00am 10.5 6.7 5.9 73 2.1 NNW 15 17 8 9 1012.8 1012.8 0.0
20/01:30am 10.2 6.4 5.8 74 2.0 NNW 15 17 8 9 1013.1 1013.1 0.0
20/01:00am 10.4 6.7 6.4 76 1.9 N 15 17 8 9 1013.3 1013.3 0.0
20/12:30am 10.7 7.0 6.5 75 2.0 N 15 15 8 8 1013.5 1013.5 0.0
20/12:00am 11.9 8.8 7.2 73 2.3 N 13 15 7 8 1013.7 1013.7 0.0
 
Date/Time
CST
Temp
°C
App
Temp
°C
Dew
Point
°C
Rel
Hum
%
Delta-T
°C
Wind Press
QNH
hPa
Press
MSL
hPa
Rain since
9am
mm
Dir  Spd
km/h
Gust
km/h
Spd
kts
Gust
kts
19/11:30pm 11.6 8.5 7.3 75 2.1 N 13 15 7 8 1013.9 1013.9 0.0
19/11:00pm 11.0 8.9 6.6 74 2.1 NNW 7 9 4 5 1014.1 1014.1 0.0
19/10:30pm 12.7 10.9 7.2 69 2.7 NNW 6 6 3 3 1014.3 1014.3 0.0
19/10:00pm 12.7 10.3 7.0 68 2.7 N 9 9 5 5 1014.6 1014.6 0.0
19/09:30pm 13.9 11.9 7.2 64 3.3 NNW 7 9 4 5 1014.8 1014.8 0.0
19/09:00pm 14.0 12.0 7.1 63 3.4 NNW 7 7 4 4 1015.0 1015.0 0.0
19/08:30pm 14.9 12.7 7.7 62 3.6 NNW 9 11 5 6 1014.9 1014.9 0.0
19/08:00pm 14.9 12.6 7.5 61 3.7 NNW 9 9 5 5 1014.9 1014.9 0.0
19/07:30pm 15.2 12.9 7.5 60 3.8 NW 9 9 5 5 1015.1 1015.1 0.0
19/07:00pm 13.3 11.1 6.4 63 3.3 NW 7 7 4 4 1015.1 1015.1 0.0
19/06:30pm 14.9 12.1 7.0 59 3.9 W 11 11 6 6 1014.9 1014.9 0.0
19/06:00pm 17.1 14.4 7.2 52 4.9 WNW 11 13 6 7 1014.7 1014.7 0.0
19/05:30pm 18.0 14.2 7.4 50 5.3 W 17 20 9 11 1014.6 1014.6 0.0
19/05:00pm 18.7 14.3 7.5 48 5.7 WNW 20 28 11 15 1014.5 1014.5 0.0
19/04:30pm 19.1 14.4 7.8 48 5.8 W 22 30 12 16 1014.5 1014.5 0.0
19/04:00pm 19.6 14.1 6.0 41 6.8 W 24 32 13 17 1014.6 1014.6 0.0
19/03:30pm 20.0 15.9 6.4 41 6.8 WNW 17 24 9 13 1014.6 1014.6 0.0
19/03:00pm 21.2 16.1 5.9 37 7.7 NW 22 33 12 18 1014.9 1014.9 0.0
19/02:30pm 20.0 16.4 8.4 47 6.0 WNW 17 24 9 13 1015.0 1015.0 0.0
19/02:00pm 19.3 15.4 8.6 50 5.6 WNW 19 24 10 13 1015.3 1015.3 0.0
19/01:30pm 19.2 15.1 8.5 50 5.6 W 20 30 11 16 1015.7 1015.7 0.0
19/01:00pm 18.7 14.5 8.1 50 5.4 WNW 20 28 11 15 1016.2 1016.2 0.0
19/12:30pm 18.5 13.4 7.6 49 5.5 WNW 24 30 13 16 1016.7 1016.7 0.0
19/12:00pm 19.2 15.1 7.9 48 5.8 NW 19 24 10 13 1017.1 1017.1 0.0
19/11:30am 18.8 13.8 7.9 49 5.6 NW 24 35 13 19 1017.5 1017.5 0.0
19/11:00am 19.4 15.4 8.1 48 5.8 NW 19 28 10 15 1017.8 1017.8 0.0
19/10:30am 18.8 14.7 8.7 52 5.2 NW 20 30 11 16 1018.2 1018.2 0.0
19/10:00am 17.7 14.0 10.3 62 3.9 NW 20 26 11 14 1018.5 1018.5 0.0
19/09:30am 16.9 13.4 10.3 65 3.5 NW 19 26 10 14 1018.9 1018.9 0.0
19/09:00am 16.1 13.1 10.8 71 2.8 NNW 17 20 9 11 1018.9 1018.9 0.0
19/08:30am 15.1 12.5 10.7 75 2.3 NNW 15 17 8 9 1019.0 1019.0 0.0
19/08:00am 14.4 11.8 10.6 78 2.0 N 15 20 8 11 1019.1 1019.1 0.0
19/07:30am 14.0 12.2 10.8 81 1.7 N 11 15 6 8 1018.8 1018.8 0.0
19/07:00am 13.3 11.3 10.1 81 1.7 N 11 13 6 7 1018.6 1018.6 0.0
19/06:30am 13.0 11.5 10.4 84 1.3 NNW 9 9 5 5 1018.7 1018.7 0.0
19/06:00am 12.7 11.6 11.9 95 0.4 N 9 11 5 6 1018.7 1018.7 0.0
19/05:30am 12.5 11.8 11.9 96 0.3 N 7 7 4 4 1018.8 1018.8 0.0
19/05:00am 12.4 11.3 12.1 98 0.2 N 9 11 5 6 1018.9 1018.9 0.0
19/04:30am 12.1 10.9 11.6 97 0.3 N 9 11 5 6 1018.9 1018.9 0.0
19/04:00am 12.2 10.9 11.3 94 0.5 WNW 9 15 5 8 1019.1 1019.1 0.0
19/03:30am 11.8 10.8 11.0 95 0.4 NNW 7 11 4 6 1019.0 1019.0 0.0
19/03:00am 11.5 10.4 10.6 94 0.5 N 7 9 4 5 1019.2 1019.2 0.0
19/02:30am 10.8 9.1 9.9 94 0.5 N 9 9 5 5 1019.5 1019.5 0.0
19/02:00am 10.5 8.4 8.4 87 1.0 NNW 9 9 5 5 1019.9 1019.9 0.0
19/01:30am 11.1 9.3 8.1 82 1.5 NNW 7 7 4 4 1020.1 1020.1 0.0
19/01:00am 12.5 11.0 9.1 80 1.7 N 7 9 4 5 1020.4 1020.4 0.0
19/12:30am 12.6 11.4 9.4 81 1.6 N 6 6 3 3 1020.6 1020.6 0.0
19/12:00am 12.6 11.3 9.2 80 1.7 NW 6 6 3 3 1021.1 1021.1 0.0
 
Date/Time
CST
Temp
°C
App
Temp
°C
Dew
Point
°C
Rel
Hum
%
Delta-T
°C
Wind Press
QNH
hPa
Press
MSL
hPa
Rain since
9am
mm
Dir  Spd
km/h
Gust
km/h
Spd
kts
Gust
kts
18/11:30pm 12.3 10.9 9.0 80 1.6 NNW 6 6 3 3 1021.2 1021.2 0.0
18/11:00pm 12.9 12.0 9.2 78 1.9 NW 4 7 2 4 1021.5 1021.5 0.0
18/10:30pm 12.7 11.9 9.5 81 1.6 NW 4 7 2 4 1021.7 1021.7 0.0
18/10:00pm 12.1 10.8 9.3 83 1.4 NW 6 6 3 3 1021.8 1021.8 0.0
18/09:30pm 10.6 9.2 8.9 89 0.8 NNW 6 7 3 4 1022.0 1022.0 0.0
18/09:00pm 9.9 8.6 7.5 85 1.1 W 4 6 2 3 1021.9 1021.9 0.0
18/08:30pm 11.8 11.4 8.1 78 1.8 CALM 0 0 0 0 1022.0 1022.0 0.0
18/08:00pm 13.9 13.9 9.7 76 2.2 CALM 0 0 0 0 1022.1 1022.1 0.0
18/07:30pm 13.9 13.7 9.1 73 2.4 CALM 0 0 0 0 1022.3 1022.3 0.0
18/07:00pm 14.4 13.9 9.4 72 2.6 W 2 4 1 2 1022.5 1022.5 0.0
18/06:30pm 14.9 13.6 9.9 72 2.6 W 7 9 4 5 1022.5 1022.5 0.0
18/06:00pm 15.0 13.5 10.4 74 2.4 SW 9 15 5 8 1022.5 1022.5 0.0
18/05:30pm 15.3 11.8 10.9 75 2.3 WSW 20 28 11 15 1022.6 1022.6 0.0
18/05:00pm 16.3 12.1 9.7 65 3.4 WSW 22 30 12 16 1022.3 1022.3 0.0
18/04:30pm 16.7 12.1 9.6 63 3.7 WSW 24 32 13 17 1022.2 1022.2 0.0
18/04:00pm 16.4 11.6 10.3 67 3.2 WSW 26 35 14 19 1022.2 1022.2 0.0
18/03:30pm 18.6 13.4 10.4 59 4.4 WSW 28 39 15 21 1022.0 1022.0 0.0
18/03:00pm 19.2 14.5 7.9 48 5.8 WSW 22 30 12 16 1021.9 1021.9 0.0
18/02:30pm 19.9 16.4 8.9 49 5.8 W 17 24 9 13 1021.8 1021.8 0.0
18/02:00pm 20.1 15.9 8.1 46 6.2 WSW 20 32 11 17 1021.9 1021.9 0.0
18/01:30pm 20.1 16.5 8.4 47 6.1 W 17 24 9 13 1022.2 1022.2 0.0
18/01:00pm 19.9 15.7 7.3 44 6.4 WSW 19 26 10 14 1022.6 1022.6 0.0
18/12:30pm 19.6 16.1 7.0 44 6.3 WSW 15 28 8 15 1023.2 1023.2 0.0
18/12:00pm 19.4 16.6 6.8 44 6.3 WSW 11 19 6 10 1023.7 1023.7 0.0
18/11:30am 18.6 16.4 7.7 49 5.5 W 9 13 5 7 1024.2 1024.2 0.0
18/11:00am 18.0 16.2 7.1 49 5.5 WNW 6 15 3 8 1024.4 1024.4 0.0
18/10:30am 17.4 14.6 10.1 62 3.8 WNW 15 20 8 11 1024.9 1024.9 0.0
18/10:00am 17.3 15.0 10.4 64 3.7 WNW 13 20 7 11 1025.1 1025.1 0.0
18/09:30am 16.4 14.2 10.7 69 3.0 NW 13 19 7 10 1025.4 1025.4 0.0
18/09:00am 15.6 13.3 10.4 71 2.7 NW 13 17 7 9 1025.5 1025.5 0.0
18/08:30am 14.9 13.4 10.5 75 2.3 NW 9 13 5 7 1025.6 1025.6 0.0
18/08:00am 13.3 13.0 13.3 100 0.0 NW 7 9 4 5 1025.4 1025.4 0.0
18/07:30am 10.7 9.8 10.7 100 0.0 N 6 7 3 4 1025.3 1025.3 0.0
18/07:00am 8.2 6.5 8.2 100 0.0 N 7 7 4 4 1025.1 1025.1 0.0
18/06:30am 8.2 6.1 8.2 100 0.0 N 9 9 5 5 1024.9 1024.9 0.0
18/06:00am 9.7 8.3 9.7 100 0.0 NNW 7 9 4 5 1025.0 1025.0 0.0
18/05:30am 10.7 9.6 10.7 100 0.0 NNW 7 9 4 5 1025.1 1025.1 0.0
18/05:00am 9.9 8.8 9.9 100 0.0 NNW 6 6 3 3 1025.0 1025.0 0.0
18/04:30am 8.3 7.2 8.3 100 0.0 N 4 4 2 2 1025.0 1025.0 0.0
18/04:00am 7.6 5.9 7.5 99 0.0 NNW 6 7 3 4 1025.0 1025.0 0.0
18/03:30am 8.9 7.4 8.6 98 0.1 NNW 6 6 3 3 1024.9 1024.9 0.0
18/03:00am 9.5 8.2 9.2 98 0.1 NNW 6 7 3 4 1024.9 1024.9 0.0
18/02:30am 10.3 9.1 9.7 96 0.3 NNW 6 6 3 3 1025.1 1025.1 0.0
18/02:00am 11.3 10.8 10.7 96 0.3 N 4 6 2 3 1025.3 1025.3 0.0
18/01:30am 11.5 10.7 11.0 97 0.3 NNW 6 7 3 4 1025.6 1025.6 0.0
18/01:00am 11.4 11.0 11.2 99 0.1 N 4 6 2 3 1025.6 1025.6 0.0
18/12:30am 9.8 9.0 9.5 98 0.1 N 4 6 2 3 1025.8 1025.8 0.0
18/12:00am 9.2 7.4 8.1 93 0.5 NNW 7 7 4 4 1025.9 1025.9 0.0
 
Date/Time
CST
Temp
°C
App
Temp
°C
Dew
Point
°C
Rel
Hum
%
Delta-T
°C
Wind Press
QNH
hPa
Press
MSL
hPa
Rain since
9am
mm
Dir  Spd
km/h
Gust
km/h
Spd
kts
Gust
kts
17/11:30pm 11.3 10.3 9.0 86 1.1 WNW 4 4 2 2 1026.1 1026.1 0.0
17/11:00pm 12.5 12.5 9.9 84 1.3 CALM 0 0 0 0 1026.4 1026.4 0.0
17/10:30pm 13.1 12.5 10.5 84 1.3 WNW 4 4 2 2 1026.5 1026.5 0.0
17/10:00pm 13.1 12.3 9.7 80 1.7 WNW 4 6 2 3 1026.7 1026.7 0.0
17/09:30pm 13.9 12.9 10.3 79 1.9 WSW 6 9 3 5 1026.5 1026.5 0.0
17/09:00pm 14.1 12.9 10.3 78 2.0 WSW 7 11 4 6 1026.7 1026.7 0.0
17/08:30pm 13.9 12.5 9.7 76 2.1 WNW 7 7 4 4 1026.7 1026.7 0.0
17/08:00pm 13.8 11.7 9.8 77 2.1 WNW 11 15 6 8 1026.7 1026.7 0.0
17/07:30pm 12.5 10.4 8.2 75 2.1 W 9 11 5 6 1026.8 1026.8 0.0
17/07:00pm 11.3 8.9 6.8 74 2.1 W 9 11 5 6 1026.7 1026.7 0.0
17/06:30pm 13.6 11.0 7.6 67 2.9 WSW 11 13 6 7 1026.5 1026.5 0.0
17/06:00pm 15.0 11.7 8.0 63 3.5 WSW 15 20 8 11 1026.3 1026.3 0.0
17/05:30pm 16.0 12.7 8.0 59 4.0 WSW 15 20 8 11 1026.0 1026.0 0.0
17/05:00pm 17.0 12.8 7.6 54 4.7 WSW 19 26 10 14 1025.8 1025.8 0.0

Other formats

Comma delimited format used in spreadsheet applications
http://www.bom.gov.au/fwo/IDS60801/IDS60801.95815.axf

JavaScript Object Notation format (JSON) in row-major order
http://www.bom.gov.au/fwo/IDS60801/IDS60801.95815.json

Data quality

Most of these data are generated automatically and are frequently updated. Quality checks on data are not normally performed. It is possible for incorrect values to appear. Refer to information at About Latest Weather Observations and please check the disclaimer before using these data.